sensor_id;sensor_type;location;lat;lon;timestamp;P1;durP1;ratioP1;P2;durP2;ratioP2
2173;SDS011;1093;51.424;11.764;2022-12-18T00:01:21;58.57;;;26.93;;
2173;SDS011;1093;51.424;11.764;2022-12-18T00:03:51;48.77;;;25.87;;
2173;SDS011;1093;51.424;11.764;2022-12-18T00:06:20;64.00;;;26.87;;
2173;SDS011;1093;51.424;11.764;2022-12-18T00:08:50;64.63;;;27.30;;
2173;SDS011;1093;51.424;11.764;2022-12-18T00:11:18;67.37;;;28.70;;
2173;SDS011;1093;51.424;11.764;2022-12-18T00:13:48;66.07;;;30.03;;
2173;SDS011;1093;51.424;11.764;2022-12-18T00:16:17;77.77;;;26.27;;
2173;SDS011;1093;51.424;11.764;2022-12-18T00:18:46;53.30;;;25.53;;
2173;SDS011;1093;51.424;11.764;2022-12-18T00:21:16;59.20;;;29.37;;
2173;SDS011;1093;51.424;11.764;2022-12-18T00:23:45;50.67;;;24.20;;
2173;SDS011;1093;51.424;11.764;2022-12-18T00:26:14;55.40;;;25.07;;
2173;SDS011;1093;51.424;11.764;2022-12-18T00:28:43;61.10;;;25.00;;
2173;SDS011;1093;51.424;11.764;2022-12-18T00:31:12;50.63;;;26.03;;
2173;SDS011;1093;51.424;11.764;2022-12-18T00:33:41;50.10;;;24.00;;
2173;SDS011;1093;51.424;11.764;2022-12-18T00:36:09;39.13;;;20.83;;
2173;SDS011;1093;51.424;11.764;2022-12-18T00:38:41;56.83;;;24.10;;
2173;SDS011;1093;51.424;11.764;2022-12-18T00:41:09;54.53;;;22.07;;
2173;SDS011;1093;51.424;11.764;2022-12-18T00:43:39;44.03;;;21.67;;
2173;SDS011;1093;51.424;11.764;2022-12-18T00:46:07;42.27;;;22.77;;
2173;SDS011;1093;51.424;11.764;2022-12-18T00:48:34;53.20;;;27.07;;
2173;SDS011;1093;51.424;11.764;2022-12-18T00:51:02;59.20;;;22.90;;
2173;SDS011;1093;51.424;11.764;2022-12-18T00:53:32;53.57;;;24.70;;
2173;SDS011;1093;51.424;11.764;2022-12-18T00:56:04;51.77;;;23.50;;
2173;SDS011;1093;51.424;11.764;2022-12-18T00:58:34;58.10;;;25.77;;
2173;SDS011;1093;51.424;11.764;2022-12-18T01:01:03;54.13;;;23.00;;
2173;SDS011;1093;51.424;11.764;2022-12-18T01:03:33;43.60;;;22.03;;
2173;SDS011;1093;51.424;11.764;2022-12-18T01:06:05;48.10;;;22.23;;
2173;SDS011;1093;51.424;11.764;2022-12-18T01:08:34;46.33;;;24.50;;
2173;SDS011;1093;51.424;11.764;2022-12-18T01:11:08;63.67;;;25.40;;
2173;SDS011;1093;51.424;11.764;2022-12-18T01:13:37;56.50;;;28.77;;
2173;SDS011;1093;51.424;11.764;2022-12-18T01:16:05;64.00;;;27.10;;
2173;SDS011;1093;51.424;11.764;2022-12-18T01:18:36;63.07;;;25.17;;
2173;SDS011;1093;51.424;11.764;2022-12-18T01:21:05;58.57;;;24.90;;
2173;SDS011;1093;51.424;11.764;2022-12-18T01:23:35;64.63;;;27.20;;
2173;SDS011;1093;51.424;11.764;2022-12-18T01:26:05;49.10;;;24.70;;
2173;SDS011;1093;51.424;11.764;2022-12-18T01:28:36;51.50;;;25.03;;
2173;SDS011;1093;51.424;11.764;2022-12-18T01:31:09;44.90;;;23.23;;
2173;SDS011;1093;51.424;11.764;2022-12-18T01:33:41;49.43;;;22.30;;
2173;SDS011;1093;51.424;11.764;2022-12-18T01:36:14;45.40;;;20.40;;
2173;SDS011;1093;51.424;11.764;2022-12-18T01:38:53;38.23;;;21.23;;
2173;SDS011;1093;51.424;11.764;2022-12-18T01:41:30;40.07;;;20.83;;
2173;SDS011;1093;51.424;11.764;2022-12-18T01:47:27;49.00;;;25.20;;
2173;SDS011;1093;51.424;11.764;2022-12-18T01:50:00;50.63;;;23.70;;
2173;SDS011;1093;51.424;11.764;2022-12-18T01:52:33;61.87;;;21.80;;
2173;SDS011;1093;51.424;11.764;2022-12-18T01:55:04;56.40;;;23.17;;
2173;SDS011;1093;51.424;11.764;2022-12-18T01:57:38;41.67;;;21.57;;
2173;SDS011;1093;51.424;11.764;2022-12-18T02:00:12;49.90;;;22.50;;
2173;SDS011;1093;51.424;11.764;2022-12-18T02:02:42;50.90;;;24.23;;
2173;SDS011;1093;51.424;11.764;2022-12-18T02:05:17;56.20;;;24.47;;
2173;SDS011;1093;51.424;11.764;2022-12-18T02:07:56;52.30;;;23.70;;
2173;SDS011;1093;51.424;11.764;2022-12-18T02:10:33;61.53;;;25.63;;
2173;SDS011;1093;51.424;11.764;2022-12-18T02:13:16;50.33;;;25.30;;
2173;SDS011;1093;51.424;11.764;2022-12-18T02:15:51;70.37;;;27.40;;
2173;SDS011;1093;51.424;11.764;2022-12-18T02:18:28;63.27;;;25.17;;
2173;SDS011;1093;51.424;11.764;2022-12-18T02:21:04;78.60;;;29.37;;
2173;SDS011;1093;51.424;11.764;2022-12-18T02:23:44;70.00;;;24.40;;
2173;SDS011;1093;51.424;11.764;2022-12-18T02:26:21;73.97;;;26.50;;
2173;SDS011;1093;51.424;11.764;2022-12-18T02:28:54;72.90;;;29.70;;
2173;SDS011;1093;51.424;11.764;2022-12-18T02:31:36;57.07;;;28.27;;
2173;SDS011;1093;51.424;11.764;2022-12-18T02:34:08;49.33;;;21.60;;
2173;SDS011;1093;51.424;11.764;2022-12-18T02:36:39;59.97;;;24.83;;
2173;SDS011;1093;51.424;11.764;2022-12-18T02:39:10;56.00;;;24.00;;
2173;SDS011;1093;51.424;11.764;2022-12-18T02:41:49;53.63;;;24.00;;
2173;SDS011;1093;51.424;11.764;2022-12-18T02:44:26;71.93;;;24.93;;
2173;SDS011;1093;51.424;11.764;2022-12-18T02:46:56;74.93;;;28.73;;
2173;SDS011;1093;51.424;11.764;2022-12-18T02:49:30;76.03;;;29.97;;
2173;SDS011;1093;51.424;11.764;2022-12-18T02:52:10;55.53;;;24.80;;
2173;SDS011;1093;51.424;11.764;2022-12-18T02:54:47;49.53;;;25.37;;
2173;SDS011;1093;51.424;11.764;2022-12-18T02:57:34;52.87;;;24.30;;
2173;SDS011;1093;51.424;11.764;2022-12-18T03:00:10;65.57;;;24.27;;
2173;SDS011;1093;51.424;11.764;2022-12-18T03:02:44;54.67;;;24.33;;
2173;SDS011;1093;51.424;11.764;2022-12-18T03:05:18;52.70;;;27.37;;
2173;SDS011;1093;51.424;11.764;2022-12-18T03:07:53;51.17;;;21.33;;
2173;SDS011;1093;51.424;11.764;2022-12-18T03:10:28;64.83;;;24.10;;
2173;SDS011;1093;51.424;11.764;2022-12-18T03:13:04;52.10;;;23.53;;
2173;SDS011;1093;51.424;11.764;2022-12-18T03:15:40;64.80;;;23.80;;
2173;SDS011;1093;51.424;11.764;2022-12-18T03:18:12;57.77;;;25.27;;
2173;SDS011;1093;51.424;11.764;2022-12-18T03:20:45;49.90;;;20.37;;
2173;SDS011;1093;51.424;11.764;2022-12-18T03:23:29;54.73;;;21.67;;
2173;SDS011;1093;51.424;11.764;2022-12-18T03:26:04;54.77;;;22.43;;
2173;SDS011;1093;51.424;11.764;2022-12-18T03:28:42;53.87;;;22.80;;
2173;SDS011;1093;51.424;11.764;2022-12-18T03:31:14;50.10;;;20.20;;
2173;SDS011;1093;51.424;11.764;2022-12-18T03:33:51;40.17;;;19.13;;
2173;SDS011;1093;51.424;11.764;2022-12-18T03:36:25;56.33;;;20.67;;
2173;SDS011;1093;51.424;11.764;2022-12-18T03:39:07;46.90;;;20.53;;
2173;SDS011;1093;51.424;11.764;2022-12-18T03:41:42;38.10;;;19.80;;
2173;SDS011;1093;51.424;11.764;2022-12-18T03:44:26;36.77;;;18.67;;
2173;SDS011;1093;51.424;11.764;2022-12-18T03:47:05;34.83;;;16.80;;
2173;SDS011;1093;51.424;11.764;2022-12-18T03:49:44;36.13;;;16.60;;
2173;SDS011;1093;51.424;11.764;2022-12-18T03:52:17;42.50;;;17.63;;
2173;SDS011;1093;51.424;11.764;2022-12-18T03:54:50;39.50;;;19.00;;
2173;SDS011;1093;51.424;11.764;2022-12-18T03:57:20;36.10;;;17.80;;
2173;SDS011;1093;51.424;11.764;2022-12-18T03:59:57;39.10;;;16.23;;
2173;SDS011;1093;51.424;11.764;2022-12-18T04:02:33;38.40;;;18.53;;
2173;SDS011;1093;51.424;11.764;2022-12-18T04:05:07;29.67;;;16.47;;
2173;SDS011;1093;51.424;11.764;2022-12-18T04:07:39;29.27;;;17.33;;
2173;SDS011;1093;51.424;11.764;2022-12-18T04:10:08;40.93;;;16.77;;
2173;SDS011;1093;51.424;11.764;2022-12-18T04:12:37;34.77;;;15.57;;
2173;SDS011;1093;51.424;11.764;2022-12-18T04:15:07;35.60;;;13.87;;
2173;SDS011;1093;51.424;11.764;2022-12-18T04:17:38;32.13;;;16.27;;
2173;SDS011;1093;51.424;11.764;2022-12-18T04:20:12;37.67;;;17.97;;
2173;SDS011;1093;51.424;11.764;2022-12-18T04:22:49;43.53;;;14.03;;
2173;SDS011;1093;51.424;11.764;2022-12-18T04:25:18;33.33;;;15.53;;
2173;SDS011;1093;51.424;11.764;2022-12-18T04:27:46;33.43;;;16.77;;
2173;SDS011;1093;51.424;11.764;2022-12-18T04:30:16;32.50;;;14.47;;
2173;SDS011;1093;51.424;11.764;2022-12-18T04:32:46;33.97;;;16.27;;
2173;SDS011;1093;51.424;11.764;2022-12-18T04:35:14;25.93;;;12.77;;
2173;SDS011;1093;51.424;11.764;2022-12-18T04:37:41;29.43;;;14.43;;
2173;SDS011;1093;51.424;11.764;2022-12-18T04:40:13;36.57;;;12.90;;
2173;SDS011;1093;51.424;11.764;2022-12-18T04:42:47;28.63;;;15.40;;
2173;SDS011;1093;51.424;11.764;2022-12-18T04:45:22;35.30;;;14.73;;
2173;SDS011;1093;51.424;11.764;2022-12-18T04:47:58;30.07;;;12.80;;
2173;SDS011;1093;51.424;11.764;2022-12-18T04:50:26;30.50;;;14.40;;
2173;SDS011;1093;51.424;11.764;2022-12-18T04:52:54;30.00;;;13.93;;
2173;SDS011;1093;51.424;11.764;2022-12-18T04:55:24;28.77;;;14.23;;
2173;SDS011;1093;51.424;11.764;2022-12-18T04:57:54;25.30;;;12.43;;
2173;SDS011;1093;51.424;11.764;2022-12-18T05:00:24;27.67;;;13.80;;
2173;SDS011;1093;51.424;11.764;2022-12-18T05:02:58;30.17;;;13.70;;
2173;SDS011;1093;51.424;11.764;2022-12-18T05:05:28;29.10;;;12.60;;
2173;SDS011;1093;51.424;11.764;2022-12-18T05:08:01;35.20;;;12.00;;
2173;SDS011;1093;51.424;11.764;2022-12-18T05:10:31;28.37;;;14.07;;
2173;SDS011;1093;51.424;11.764;2022-12-18T05:13:07;19.40;;;12.07;;
2173;SDS011;1093;51.424;11.764;2022-12-18T05:15:37;29.90;;;14.17;;
2173;SDS011;1093;51.424;11.764;2022-12-18T05:18:05;25.00;;;12.77;;
2173;SDS011;1093;51.424;11.764;2022-12-18T05:20:36;30.90;;;13.50;;
2173;SDS011;1093;51.424;11.764;2022-12-18T05:23:07;23.03;;;11.20;;
2173;SDS011;1093;51.424;11.764;2022-12-18T05:25:36;26.20;;;12.63;;
2173;SDS011;1093;51.424;11.764;2022-12-18T05:28:19;27.27;;;12.50;;
2173;SDS011;1093;51.424;11.764;2022-12-18T05:30:56;26.37;;;11.77;;
2173;SDS011;1093;51.424;11.764;2022-12-18T05:33:26;28.33;;;14.53;;
2173;SDS011;1093;51.424;11.764;2022-12-18T05:35:57;26.00;;;13.30;;
2173;SDS011;1093;51.424;11.764;2022-12-18T05:38:26;19.83;;;10.97;;
2173;SDS011;1093;51.424;11.764;2022-12-18T05:41:03;26.47;;;13.00;;
2173;SDS011;1093;51.424;11.764;2022-12-18T05:43:35;25.33;;;14.60;;
2173;SDS011;1093;51.424;11.764;2022-12-18T05:46:08;27.90;;;12.60;;
2173;SDS011;1093;51.424;11.764;2022-12-18T05:48:45;27.87;;;14.67;;
2173;SDS011;1093;51.424;11.764;2022-12-18T05:51:16;38.37;;;15.37;;
2173;SDS011;1093;51.424;11.764;2022-12-18T05:53:54;25.73;;;14.23;;
2173;SDS011;1093;51.424;11.764;2022-12-18T05:56:33;22.30;;;12.33;;
2173;SDS011;1093;51.424;11.764;2022-12-18T05:59:17;21.20;;;11.73;;
2173;SDS011;1093;51.424;11.764;2022-12-18T06:01:56;24.40;;;12.17;;
2173;SDS011;1093;51.424;11.764;2022-12-18T06:04:26;21.97;;;11.07;;
2173;SDS011;1093;51.424;11.764;2022-12-18T06:07:00;29.50;;;11.10;;
2173;SDS011;1093;51.424;11.764;2022-12-18T06:09:34;24.40;;;11.93;;
2173;SDS011;1093;51.424;11.764;2022-12-18T06:12:08;19.63;;;11.03;;
2173;SDS011;1093;51.424;11.764;2022-12-18T06:14:40;23.03;;;12.63;;
2173;SDS011;1093;51.424;11.764;2022-12-18T06:17:17;33.97;;;12.70;;
2173;SDS011;1093;51.424;11.764;2022-12-18T06:19:54;24.67;;;13.67;;
2173;SDS011;1093;51.424;11.764;2022-12-18T06:22:32;23.93;;;11.90;;
2173;SDS011;1093;51.424;11.764;2022-12-18T06:25:21;21.40;;;11.87;;
2173;SDS011;1093;51.424;11.764;2022-12-18T06:27:55;24.70;;;14.03;;
2173;SDS011;1093;51.424;11.764;2022-12-18T06:30:32;26.40;;;12.20;;
2173;SDS011;1093;51.424;11.764;2022-12-18T06:33:09;24.37;;;11.40;;
2173;SDS011;1093;51.424;11.764;2022-12-18T06:35:50;22.37;;;12.10;;
2173;SDS011;1093;51.424;11.764;2022-12-18T06:38:23;22.80;;;10.67;;
2173;SDS011;1093;51.424;11.764;2022-12-18T06:41:05;25.20;;;13.90;;
2173;SDS011;1093;51.424;11.764;2022-12-18T06:43:49;32.63;;;15.93;;
2173;SDS011;1093;51.424;11.764;2022-12-18T06:46:32;28.53;;;12.03;;
2173;SDS011;1093;51.424;11.764;2022-12-18T06:49:15;29.10;;;13.83;;
2173;SDS011;1093;51.424;11.764;2022-12-18T06:51:53;22.47;;;11.70;;
2173;SDS011;1093;51.424;11.764;2022-12-18T06:54:27;31.60;;;13.03;;
2173;SDS011;1093;51.424;11.764;2022-12-18T06:57:14;28.27;;;11.93;;
2173;SDS011;1093;51.424;11.764;2022-12-18T06:59:50;23.37;;;10.43;;
2173;SDS011;1093;51.424;11.764;2022-12-18T07:02:18;27.17;;;11.43;;
2173;SDS011;1093;51.424;11.764;2022-12-18T07:04:56;30.47;;;15.87;;
2173;SDS011;1093;51.424;11.764;2022-12-18T07:07:31;28.17;;;13.40;;
2173;SDS011;1093;51.424;11.764;2022-12-18T07:10:05;34.57;;;13.80;;
2173;SDS011;1093;51.424;11.764;2022-12-18T07:12:57;27.07;;;13.50;;
2173;SDS011;1093;51.424;11.764;2022-12-18T07:15:36;36.17;;;14.27;;
2173;SDS011;1093;51.424;11.764;2022-12-18T07:18:07;25.70;;;14.20;;
2173;SDS011;1093;51.424;11.764;2022-12-18T07:20:38;43.03;;;14.20;;
2173;SDS011;1093;51.424;11.764;2022-12-18T07:23:12;30.67;;;11.97;;
2173;SDS011;1093;51.424;11.764;2022-12-18T07:25:45;24.57;;;12.40;;
2173;SDS011;1093;51.424;11.764;2022-12-18T07:28:21;24.57;;;12.37;;
2173;SDS011;1093;51.424;11.764;2022-12-18T07:30:56;29.93;;;14.23;;
2173;SDS011;1093;51.424;11.764;2022-12-18T07:33:40;27.50;;;14.00;;
2173;SDS011;1093;51.424;11.764;2022-12-18T07:36:17;35.23;;;15.30;;
2173;SDS011;1093;51.424;11.764;2022-12-18T07:38:49;36.33;;;15.03;;
2173;SDS011;1093;51.424;11.764;2022-12-18T07:41:31;35.93;;;13.93;;
2173;SDS011;1093;51.424;11.764;2022-12-18T07:44:29;35.63;;;11.13;;
2173;SDS011;1093;51.424;11.764;2022-12-18T07:47:15;25.27;;;10.53;;
2173;SDS011;1093;51.424;11.764;2022-12-18T07:49:54;33.00;;;13.80;;
2173;SDS011;1093;51.424;11.764;2022-12-18T07:52:28;29.07;;;13.10;;
2173;SDS011;1093;51.424;11.764;2022-12-18T07:54:58;27.73;;;13.83;;
2173;SDS011;1093;51.424;11.764;2022-12-18T07:57:28;23.00;;;10.67;;
2173;SDS011;1093;51.424;11.764;2022-12-18T08:00:00;31.07;;;13.20;;
2173;SDS011;1093;51.424;11.764;2022-12-18T08:02:30;20.97;;;12.07;;
2173;SDS011;1093;51.424;11.764;2022-12-18T08:04:57;22.20;;;12.17;;
2173;SDS011;1093;51.424;11.764;2022-12-18T08:07:24;29.17;;;13.47;;
2173;SDS011;1093;51.424;11.764;2022-12-18T08:09:55;31.70;;;13.47;;
2173;SDS011;1093;51.424;11.764;2022-12-18T08:12:24;23.10;;;13.23;;
2173;SDS011;1093;51.424;11.764;2022-12-18T08:14:51;20.90;;;11.53;;
2173;SDS011;1093;51.424;11.764;2022-12-18T08:17:18;30.87;;;14.20;;
2173;SDS011;1093;51.424;11.764;2022-12-18T08:19:52;22.63;;;12.90;;
2173;SDS011;1093;51.424;11.764;2022-12-18T08:22:29;29.90;;;13.70;;
2173;SDS011;1093;51.424;11.764;2022-12-18T08:25:05;45.13;;;17.50;;
2173;SDS011;1093;51.424;11.764;2022-12-18T08:27:33;22.93;;;12.07;;
2173;SDS011;1093;51.424;11.764;2022-12-18T08:30:00;39.47;;;13.30;;
2173;SDS011;1093;51.424;11.764;2022-12-18T08:32:28;25.23;;;16.20;;
2173;SDS011;1093;51.424;11.764;2022-12-18T08:34:58;34.10;;;13.97;;
2173;SDS011;1093;51.424;11.764;2022-12-18T08:37:34;25.30;;;13.30;;
2173;SDS011;1093;51.424;11.764;2022-12-18T08:40:02;30.10;;;12.70;;
2173;SDS011;1093;51.424;11.764;2022-12-18T08:42:32;28.13;;;14.30;;
2173;SDS011;1093;51.424;11.764;2022-12-18T08:45:16;33.63;;;16.23;;
2173;SDS011;1093;51.424;11.764;2022-12-18T08:47:46;31.33;;;15.63;;
2173;SDS011;1093;51.424;11.764;2022-12-18T08:50:16;30.40;;;14.83;;
2173;SDS011;1093;51.424;11.764;2022-12-18T08:53:09;25.23;;;13.20;;
2173;SDS011;1093;51.424;11.764;2022-12-18T08:55:41;29.50;;;15.53;;
2173;SDS011;1093;51.424;11.764;2022-12-18T09:00:59;34.33;;;16.80;;
2173;SDS011;1093;51.424;11.764;2022-12-18T09:03:30;21.20;;;12.97;;
2173;SDS011;1093;51.424;11.764;2022-12-18T09:06:00;27.90;;;15.63;;
2173;SDS011;1093;51.424;11.764;2022-12-18T09:08:31;32.53;;;17.07;;
2173;SDS011;1093;51.424;11.764;2022-12-18T09:14:06;34.37;;;16.33;;
2173;SDS011;1093;51.424;11.764;2022-12-18T09:16:36;33.70;;;16.03;;
2173;SDS011;1093;51.424;11.764;2022-12-18T09:22:14;30.77;;;16.87;;
2173;SDS011;1093;51.424;11.764;2022-12-18T09:28:02;34.30;;;18.63;;
2173;SDS011;1093;51.424;11.764;2022-12-18T09:30:45;35.83;;;14.70;;
2173;SDS011;1093;51.424;11.764;2022-12-18T09:33:21;22.50;;;11.90;;
2173;SDS011;1093;51.424;11.764;2022-12-18T09:35:57;16.57;;;12.60;;
2173;SDS011;1093;51.424;11.764;2022-12-18T09:38:49;15.90;;;10.23;;
2173;SDS011;1093;51.424;11.764;2022-12-18T09:41:39;22.77;;;11.77;;
2173;SDS011;1093;51.424;11.764;2022-12-18T09:51:26;23.80;;;13.30;;
2173;SDS011;1093;51.424;11.764;2022-12-18T09:54:31;35.63;;;18.33;;
2173;SDS011;1093;51.424;11.764;2022-12-18T09:57:51;43.63;;;23.77;;
2173;SDS011;1093;51.424;11.764;2022-12-18T10:04:30;41.03;;;21.43;;
2173;SDS011;1093;51.424;11.764;2022-12-18T10:07:24;39.30;;;19.17;;
2173;SDS011;1093;51.424;11.764;2022-12-18T10:10:04;40.03;;;20.60;;
2173;SDS011;1093;51.424;11.764;2022-12-18T10:12:44;30.17;;;16.80;;
2173;SDS011;1093;51.424;11.764;2022-12-18T10:15:23;36.27;;;18.97;;
2173;SDS011;1093;51.424;11.764;2022-12-18T10:18:04;39.77;;;19.57;;
2173;SDS011;1093;51.424;11.764;2022-12-18T10:20:59;39.27;;;20.30;;
2173;SDS011;1093;51.424;11.764;2022-12-18T10:23:37;31.10;;;19.73;;
2173;SDS011;1093;51.424;11.764;2022-12-18T10:26:23;36.73;;;19.97;;
2173;SDS011;1093;51.424;11.764;2022-12-18T10:29:00;41.50;;;20.07;;
2173;SDS011;1093;51.424;11.764;2022-12-18T10:31:42;35.37;;;19.97;;
2173;SDS011;1093;51.424;11.764;2022-12-18T10:34:25;48.00;;;18.43;;
2173;SDS011;1093;51.424;11.764;2022-12-18T10:37:00;39.27;;;19.87;;
2173;SDS011;1093;51.424;11.764;2022-12-18T10:39:35;46.67;;;19.47;;
2173;SDS011;1093;51.424;11.764;2022-12-18T10:42:09;41.97;;;19.67;;
2173;SDS011;1093;51.424;11.764;2022-12-18T10:44:44;45.70;;;21.07;;
2173;SDS011;1093;51.424;11.764;2022-12-18T10:47:37;50.40;;;19.10;;
2173;SDS011;1093;51.424;11.764;2022-12-18T11:00:42;30.30;;;18.60;;
2173;SDS011;1093;51.424;11.764;2022-12-18T11:04:01;51.77;;;23.47;;
2173;SDS011;1093;51.424;11.764;2022-12-18T11:07:09;50.00;;;27.13;;
2173;SDS011;1093;51.424;11.764;2022-12-18T11:10:04;46.70;;;23.70;;
2173;SDS011;1093;51.424;11.764;2022-12-18T11:15:45;49.23;;;25.27;;
2173;SDS011;1093;51.424;11.764;2022-12-18T11:18:18;67.17;;;27.70;;
2173;SDS011;1093;51.424;11.764;2022-12-18T11:20:57;57.57;;;25.70;;
2173;SDS011;1093;51.424;11.764;2022-12-18T11:23:26;48.63;;;25.97;;
2173;SDS011;1093;51.424;11.764;2022-12-18T11:26:05;50.73;;;24.17;;
2173;SDS011;1093;51.424;11.764;2022-12-18T11:28:44;49.33;;;25.80;;
2173;SDS011;1093;51.424;11.764;2022-12-18T11:31:22;55.70;;;27.90;;
2173;SDS011;1093;51.424;11.764;2022-12-18T11:34:02;64.33;;;29.13;;
2173;SDS011;1093;51.424;11.764;2022-12-18T11:36:45;52.40;;;26.10;;
2173;SDS011;1093;51.424;11.764;2022-12-18T11:39:27;57.50;;;26.83;;
2173;SDS011;1093;51.424;11.764;2022-12-18T11:42:09;63.00;;;27.93;;
2173;SDS011;1093;51.424;11.764;2022-12-18T11:44:52;82.93;;;40.23;;
2173;SDS011;1093;51.424;11.764;2022-12-18T11:47:29;62.27;;;31.60;;
2173;SDS011;1093;51.424;11.764;2022-12-18T11:50:12;56.43;;;31.77;;
2173;SDS011;1093;51.424;11.764;2022-12-18T11:52:47;57.47;;;31.00;;
2173;SDS011;1093;51.424;11.764;2022-12-18T11:55:27;59.13;;;28.40;;
2173;SDS011;1093;51.424;11.764;2022-12-18T11:58:12;57.50;;;29.77;;
2173;SDS011;1093;51.424;11.764;2022-12-18T12:00:53;75.73;;;29.63;;
2173;SDS011;1093;51.424;11.764;2022-12-18T12:03:47;57.87;;;28.27;;
2173;SDS011;1093;51.424;11.764;2022-12-18T12:06:50;59.77;;;29.20;;
2173;SDS011;1093;51.424;11.764;2022-12-18T12:09:33;55.70;;;31.30;;
2173;SDS011;1093;51.424;11.764;2022-12-18T12:12:18;54.87;;;29.60;;
2173;SDS011;1093;51.424;11.764;2022-12-18T12:15:13;58.83;;;28.13;;
2173;SDS011;1093;51.424;11.764;2022-12-18T12:17:55;73.73;;;32.97;;
2173;SDS011;1093;51.424;11.764;2022-12-18T12:20:34;54.73;;;28.13;;
2173;SDS011;1093;51.424;11.764;2022-12-18T12:23:16;72.20;;;30.90;;
2173;SDS011;1093;51.424;11.764;2022-12-18T12:25:59;69.40;;;34.73;;
2173;SDS011;1093;51.424;11.764;2022-12-18T12:28:44;67.73;;;32.30;;
2173;SDS011;1093;51.424;11.764;2022-12-18T12:31:32;63.17;;;34.07;;
2173;SDS011;1093;51.424;11.764;2022-12-18T12:34:20;63.30;;;33.60;;
2173;SDS011;1093;51.424;11.764;2022-12-18T12:37:02;70.47;;;35.20;;
2173;SDS011;1093;51.424;11.764;2022-12-18T12:39:41;72.53;;;36.20;;
2173;SDS011;1093;51.424;11.764;2022-12-18T12:42:14;69.90;;;35.63;;
2173;SDS011;1093;51.424;11.764;2022-12-18T12:45:05;59.70;;;33.57;;
2173;SDS011;1093;51.424;11.764;2022-12-18T12:47:41;71.83;;;35.17;;
2173;SDS011;1093;51.424;11.764;2022-12-18T12:50:14;82.10;;;37.47;;
2173;SDS011;1093;51.424;11.764;2022-12-18T12:52:45;72.77;;;36.27;;
2173;SDS011;1093;51.424;11.764;2022-12-18T12:55:16;66.77;;;36.93;;
2173;SDS011;1093;51.424;11.764;2022-12-18T12:57:47;67.20;;;34.37;;
2173;SDS011;1093;51.424;11.764;2022-12-18T13:00:22;79.60;;;37.87;;
2173;SDS011;1093;51.424;11.764;2022-12-18T13:02:52;59.93;;;34.60;;
2173;SDS011;1093;51.424;11.764;2022-12-18T13:05:29;86.73;;;34.13;;
2173;SDS011;1093;51.424;11.764;2022-12-18T13:08:02;58.63;;;32.77;;
2173;SDS011;1093;51.424;11.764;2022-12-18T13:10:32;72.73;;;36.93;;
2173;SDS011;1093;51.424;11.764;2022-12-18T13:13:02;73.83;;;32.80;;
2173;SDS011;1093;51.424;11.764;2022-12-18T13:15:32;61.97;;;31.10;;
2173;SDS011;1093;51.424;11.764;2022-12-18T13:18:05;61.07;;;29.90;;
2173;SDS011;1093;51.424;11.764;2022-12-18T13:20:45;73.77;;;34.60;;
2173;SDS011;1093;51.424;11.764;2022-12-18T13:23:28;64.07;;;33.03;;
2173;SDS011;1093;51.424;11.764;2022-12-18T13:25:57;69.27;;;32.13;;
2173;SDS011;1093;51.424;11.764;2022-12-18T13:34:21;62.80;;;29.50;;
2173;SDS011;1093;51.424;11.764;2022-12-18T13:43:29;55.43;;;30.93;;
2173;SDS011;1093;51.424;11.764;2022-12-18T13:46:02;69.47;;;31.27;;
2173;SDS011;1093;51.424;11.764;2022-12-18T13:48:48;65.43;;;32.60;;
2173;SDS011;1093;51.424;11.764;2022-12-18T13:51:24;61.10;;;33.17;;
2173;SDS011;1093;51.424;11.764;2022-12-18T13:53:54;54.90;;;31.43;;
2173;SDS011;1093;51.424;11.764;2022-12-18T13:56:28;77.50;;;33.33;;
2173;SDS011;1093;51.424;11.764;2022-12-18T13:59:08;74.70;;;34.27;;
2173;SDS011;1093;51.424;11.764;2022-12-18T14:01:42;64.13;;;31.13;;
2173;SDS011;1093;51.424;11.764;2022-12-18T14:04:12;57.00;;;31.33;;
2173;SDS011;1093;51.424;11.764;2022-12-18T14:06:45;64.87;;;31.27;;
2173;SDS011;1093;51.424;11.764;2022-12-18T14:09:16;61.70;;;33.37;;
2173;SDS011;1093;51.424;11.764;2022-12-18T14:11:47;63.37;;;30.40;;
2173;SDS011;1093;51.424;11.764;2022-12-18T14:14:15;50.83;;;30.80;;
2173;SDS011;1093;51.424;11.764;2022-12-18T14:16:44;59.53;;;32.87;;
2173;SDS011;1093;51.424;11.764;2022-12-18T14:19:13;65.40;;;32.07;;
2173;SDS011;1093;51.424;11.764;2022-12-18T14:21:45;61.90;;;33.60;;
2173;SDS011;1093;51.424;11.764;2022-12-18T14:24:14;64.23;;;32.47;;
2173;SDS011;1093;51.424;11.764;2022-12-18T14:26:43;56.87;;;29.67;;
2173;SDS011;1093;51.424;11.764;2022-12-18T14:29:24;62.30;;;33.37;;
2173;SDS011;1093;51.424;11.764;2022-12-18T14:32:05;72.40;;;31.63;;
2173;SDS011;1093;51.424;11.764;2022-12-18T14:34:33;61.83;;;31.50;;
2173;SDS011;1093;51.424;11.764;2022-12-18T14:37:00;70.73;;;31.63;;
2173;SDS011;1093;51.424;11.764;2022-12-18T14:39:26;63.47;;;30.93;;
2173;SDS011;1093;51.424;11.764;2022-12-18T14:41:55;64.17;;;30.50;;
2173;SDS011;1093;51.424;11.764;2022-12-18T14:44:22;78.47;;;32.37;;
2173;SDS011;1093;51.424;11.764;2022-12-18T14:46:49;63.83;;;28.87;;
2173;SDS011;1093;51.424;11.764;2022-12-18T14:49:19;68.37;;;29.17;;
2173;SDS011;1093;51.424;11.764;2022-12-18T14:51:52;47.70;;;26.70;;
2173;SDS011;1093;51.424;11.764;2022-12-18T14:54:20;55.83;;;28.17;;
2173;SDS011;1093;51.424;11.764;2022-12-18T14:56:49;45.50;;;24.07;;
2173;SDS011;1093;51.424;11.764;2022-12-18T14:59:19;49.97;;;26.40;;
2173;SDS011;1093;51.424;11.764;2022-12-18T15:01:49;50.47;;;23.30;;
2173;SDS011;1093;51.424;11.764;2022-12-18T15:04:25;40.10;;;22.60;;
2173;SDS011;1093;51.424;11.764;2022-12-18T15:07:04;41.87;;;23.60;;
2173;SDS011;1093;51.424;11.764;2022-12-18T15:09:34;35.40;;;21.67;;
2173;SDS011;1093;51.424;11.764;2022-12-18T15:12:01;34.50;;;18.87;;
2173;SDS011;1093;51.424;11.764;2022-12-18T15:14:31;47.47;;;18.07;;
2173;SDS011;1093;51.424;11.764;2022-12-18T15:17:02;33.53;;;18.80;;
2173;SDS011;1093;51.424;11.764;2022-12-18T15:19:35;28.57;;;17.87;;
2173;SDS011;1093;51.424;11.764;2022-12-18T15:22:12;48.70;;;24.43;;
2173;SDS011;1093;51.424;11.764;2022-12-18T15:25:00;37.33;;;21.20;;
2173;SDS011;1093;51.424;11.764;2022-12-18T15:27:44;37.17;;;21.10;;
2173;SDS011;1093;51.424;11.764;2022-12-18T15:30:24;37.37;;;19.87;;
2173;SDS011;1093;51.424;11.764;2022-12-18T15:32:52;36.60;;;23.33;;
2173;SDS011;1093;51.424;11.764;2022-12-18T15:35:39;36.13;;;20.20;;
2173;SDS011;1093;51.424;11.764;2022-12-18T15:38:06;46.57;;;20.80;;
2173;SDS011;1093;51.424;11.764;2022-12-18T15:40:33;33.70;;;18.60;;
2173;SDS011;1093;51.424;11.764;2022-12-18T15:43:00;33.13;;;19.00;;
2173;SDS011;1093;51.424;11.764;2022-12-18T15:45:51;30.33;;;18.00;;
2173;SDS011;1093;51.424;11.764;2022-12-18T15:48:20;48.10;;;21.97;;
2173;SDS011;1093;51.424;11.764;2022-12-18T15:50:48;32.43;;;18.87;;
2173;SDS011;1093;51.424;11.764;2022-12-18T15:53:30;35.40;;;20.67;;
2173;SDS011;1093;51.424;11.764;2022-12-18T15:55:59;32.80;;;18.23;;
2173;SDS011;1093;51.424;11.764;2022-12-18T15:58:43;28.50;;;15.40;;
2173;SDS011;1093;51.424;11.764;2022-12-18T16:01:12;24.43;;;14.17;;
2173;SDS011;1093;51.424;11.764;2022-12-18T16:03:39;30.43;;;15.87;;
2173;SDS011;1093;51.424;11.764;2022-12-18T16:06:08;28.10;;;16.70;;
2173;SDS011;1093;51.424;11.764;2022-12-18T16:08:40;37.17;;;19.50;;
2173;SDS011;1093;51.424;11.764;2022-12-18T16:11:08;34.40;;;18.80;;
2173;SDS011;1093;51.424;11.764;2022-12-18T16:14:03;36.53;;;21.20;;